Time;durP1;ratioP1;P1;durP2;ratioP2;P2;SDS_P1;SDS_P2;PMS_P1;PMS_P2;Temp;Humidity;BMP_temperature;BMP_pressure;BME280_temperature;BME280_humidity;BME280_pressure;Samples;Min_cycle;Max_cycle;Signal;HPM_P1;HPM_P2
2021/11/09 00:00:26;;;;;;;36.42;14.30;;;1.40;99.90;;;;;;5051344;28;20037;-73
2021/11/09 00:02:53;;;;;;;25.08;14.15;;;1.50;99.90;;;;;;5049541;28;20036;-72
2021/11/09 00:05:22;;;;;;;34.58;13.98;;;1.40;99.90;;;;;;5051498;28;20040;-72
2021/11/09 00:07:57;;;;;;;31.77;14.00;;;1.40;99.90;;;;;;5050633;28;20025;-72
2021/11/09 00:10:25;;;;;;;25.67;13.50;;;1.40;99.90;;;;;;5051759;28;20536;-73
2021/11/09 00:13:00;;;;;;;31.20;13.73;;;1.40;99.90;;;;;;5050915;28;20481;-73
2021/11/09 00:15:27;;;;;;;32.65;14.13;;;1.40;99.90;;;;;;5051974;28;20029;-73
2021/11/09 00:17:56;;;;;;;34.00;14.48;;;1.40;99.90;;;;;;5051042;28;20033;-72
2021/11/09 00:20:25;;;;;;;30.23;13.10;;;1.40;99.90;;;;;;5051497;28;20048;-73
2021/11/09 00:22:50;;;;;;;33.08;14.43;;;1.40;99.90;;;;;;5050208;28;20029;-72
2021/11/09 00:25:18;;;;;;;31.67;12.60;;;1.30;99.90;;;;;;5051080;28;20401;-72
2021/11/09 00:27:44;;;;;;;37.75;14.68;;;1.30;99.90;;;;;;5051272;28;20029;-72
2021/11/09 00:30:11;;;;;;;37.47;14.27;;;1.30;99.90;;;;;;5050836;28;20056;-72
2021/11/09 00:32:43;;;;;;;30.20;12.57;;;1.40;99.90;;;;;;5049952;28;20466;-73
2021/11/09 00:35:13;;;;;;;27.02;13.45;;;1.40;99.90;;;;;;5051123;28;20083;-73
2021/11/09 00:37:39;;;;;;;;;;;1.30;99.90;;;;;;5052042;28;20033;-72
2021/11/09 00:40:07;;;;;;;30.15;13.77;;;1.30;99.90;;;;;;5050326;28;19908;-73
2021/11/09 00:42:32;;;;;;;29.48;13.32;;;1.20;99.90;;;;;;5051158;28;20071;-73
2021/11/09 00:44:58;;;;;;;25.15;13.63;;;1.10;99.90;;;;;;5050523;28;20052;-72
2021/11/09 00:47:24;;;;;;;26.83;13.13;;;1.10;99.90;;;;;;5051471;28;20493;-72
2021/11/09 00:49:50;;;;;;;28.83;14.35;;;1.00;99.90;;;;;;5054407;28;20112;-72
2021/11/09 00:52:17;;;;;;;31.40;14.88;;;1.00;99.90;;;;;;5055436;28;20060;-72
2021/11/09 00:54:43;;;;;;;31.55;13.30;;;1.00;99.90;;;;;;5055422;28;20096;-72
2021/11/09 00:57:08;;;;;;;31.92;14.05;;;0.90;99.90;;;;;;5054273;28;20028;-73
2021/11/09 00:59:34;;;;;;;37.53;14.05;;;0.90;99.90;;;;;;5055874;28;20108;-72
2021/11/09 01:02:00;;;;;;;35.85;14.02;;;0.90;99.90;;;;;;5054067;28;20025;-72
2021/11/09 01:04:27;;;;;;;36.13;14.10;;;0.90;99.90;;;;;;5055362;28;20466;-73
2021/11/09 01:06:53;;;;;;;33.40;13.82;;;0.90;99.90;;;;;;5054284;28;20092;-72
2021/11/09 01:09:22;;;;;;;31.98;14.57;;;0.90;99.90;;;;;;5055141;28;20497;-72
2021/11/09 01:11:48;;;;;;;32.45;13.90;;;1.00;99.90;;;;;;5054492;28;20462;-72
2021/11/09 01:14:14;;;;;;;31.00;13.13;;;1.00;99.90;;;;;;5054468;28;20386;-72
2021/11/09 01:16:40;;;;;;;34.25;13.25;;;1.00;99.90;;;;;;5055030;28;20021;-73
2021/11/09 01:19:07;;;;;;;29.50;13.68;;;1.10;99.90;;;;;;5054604;28;20343;-72
2021/11/09 01:21:33;;;;;;;33.22;14.73;;;1.10;99.90;;;;;;5054613;28;20462;-73
2021/11/09 01:23:59;;;;;;;35.92;14.13;;;1.10;99.90;;;;;;5053661;28;20028;-73
2021/11/09 01:26:26;;;;;;;30.33;14.70;;;1.20;99.90;;;;;;5053902;28;20116;-73
2021/11/09 01:28:54;;;;;;;31.40;13.68;;;1.20;99.90;;;;;;5053674;28;20057;-73
2021/11/09 01:31:21;;;;;;;30.10;14.18;;;1.30;99.90;;;;;;5054555;28;20025;-73
2021/11/09 01:33:47;;;;;;;28.15;13.30;;;1.30;99.90;;;;;;5053179;28;20025;-72
2021/11/09 01:36:13;;;;;;;27.88;13.70;;;1.30;99.90;;;;;;5054337;28;20033;-72
2021/11/09 01:38:39;;;;;;;30.90;13.13;;;1.40;99.90;;;;;;5053507;28;20032;-72
2021/11/09 01:41:08;;;;;;;34.92;13.85;;;1.40;99.90;;;;;;5053563;28;20060;-72
2021/11/09 01:43:35;;;;;;;27.38;13.18;;;1.40;99.90;;;;;;5054563;28;20029;-72
2021/11/09 01:46:02;;;;;;;27.10;13.80;;;1.40;99.90;;;;;;5053959;28;20124;-72
2021/11/09 01:48:28;;;;;;;26.42;13.93;;;1.40;99.90;;;;;;5054274;28;20082;-72
2021/11/09 01:50:59;;;;;;;33.10;14.30;;;1.40;99.90;;;;;;5053730;28;20528;-72
2021/11/09 01:53:26;;;;;;;35.50;14.07;;;1.50;99.90;;;;;;5054394;28;20029;-72
2021/11/09 01:55:52;;;;;;;36.28;14.52;;;1.50;99.90;;;;;;5053093;28;20615;-72
2021/11/09 01:58:18;;;;;;;32.45;13.75;;;1.50;99.90;;;;;;5054004;28;20025;-72
2021/11/09 02:00:53;;;;;;;32.30;13.90;;;1.60;99.90;;;;;;5053502;28;20029;-73
2021/11/09 02:03:19;;;;;;;33.25;14.40;;;1.70;99.90;;;;;;5054291;28;20025;-73
2021/11/09 02:05:45;;;;;;;32.67;13.88;;;1.70;99.90;;;;;;5054080;28;20044;-72
2021/11/09 02:08:12;;;;;;;30.23;13.30;;;1.70;99.90;;;;;;5053032;28;20560;-73
2021/11/09 02:10:41;;;;;;;30.55;13.43;;;1.80;99.90;;;;;;5054193;28;20037;-72
2021/11/09 02:13:07;;;;;;;36.33;13.77;;;1.90;99.90;;;;;;5053116;28;20029;-72
2021/11/09 02:15:35;;;;;;;36.40;14.52;;;1.90;99.90;;;;;;5053739;28;20045;-72
2021/11/09 02:18:01;;;;;;;22.30;11.82;;;1.90;99.90;;;;;;5052863;28;20112;-73
2021/11/09 02:20:29;;;;;;;30.63;13.30;;;2.00;99.90;;;;;;5052971;28;20032;-73
2021/11/09 02:22:57;;;;;;;27.40;12.85;;;2.00;99.90;;;;;;5051602;28;20028;-72
2021/11/09 02:25:26;;;;;;;21.63;12.27;;;2.00;99.90;;;;;;5053764;28;20114;-73
2021/11/09 02:27:52;;;;;;;27.15;12.07;;;2.00;99.90;;;;;;5053294;28;20033;-73
2021/11/09 02:30:25;;;;;;;25.27;11.77;;;2.10;99.90;;;;;;5053952;28;20091;-73
2021/11/09 02:32:52;;;;;;;27.85;12.88;;;2.10;99.90;;;;;;5053407;28;20025;-73
2021/11/09 02:35:19;;;;;;;32.00;13.43;;;2.10;99.90;;;;;;5053271;28;20469;-73
2021/11/09 02:37:45;;;;;;;25.13;11.63;;;2.10;99.90;;;;;;5053358;28;20079;-73
2021/11/09 02:40:11;;;;;;;31.63;12.30;;;2.10;99.90;;;;;;5052446;28;20033;-72
2021/11/09 02:42:41;;;;;;;24.83;12.35;;;2.30;99.90;;;;;;5052128;28;20123;-73
2021/11/09 02:45:29;;;;;;;27.13;13.45;;;2.30;99.90;;;;;;5052044;28;20490;-73
2021/11/09 02:48:01;;;;;;;28.88;12.07;;;2.20;99.90;;;;;;5052559;28;20037;-72
2021/11/09 02:50:33;;;;;;;30.30;12.85;;;2.20;99.90;;;;;;5053325;28;20020;-73
2021/11/09 02:53:03;;;;;;;24.42;11.35;;;2.30;99.90;;;;;;5052384;28;20484;-73
2021/11/09 02:55:35;;;;;;;33.95;12.43;;;2.30;99.90;;;;;;5053058;28;20032;-73
2021/11/09 03:00:33;;;;;;;25.05;11.75;;;2.40;99.90;;;;;;5035853;28;20029;-73
2021/11/09 03:03:10;;;;;;;25.40;11.55;;;2.50;99.90;;;;;;5052217;28;20389;-72
2021/11/09 03:08:42;;;;;;;23.30;13.10;;;2.50;99.90;;;;;;5030228;28;20474;-72
2021/11/09 03:11:09;;;;;;;21.15;10.52;;;2.50;99.90;;;;;;5047500;28;20052;-73
2021/11/09 03:13:36;;;;;;;29.52;11.82;;;2.40;99.90;;;;;;5051557;28;20539;-74
2021/11/09 03:16:08;;;;;;;22.58;10.98;;;2.40;99.90;;;;;;5052448;28;20477;-73
2021/11/09 03:18:41;;;;;;;25.20;11.70;;;2.40;99.90;;;;;;5052711;28;20032;-73
2021/11/09 03:40:26;;;;;;;19.58;10.40;;;2.10;99.90;;;;;;5050951;28;20035;-74
2021/11/09 03:45:37;;;;;;;21.40;11.77;;;1.90;99.90;;;;;;5052178;28;20064;-74
2021/11/09 03:48:15;;;;;;;27.80;12.25;;;1.80;99.90;;;;;;5051443;28;20028;-73
2021/11/09 03:50:44;;;;;;;24.83;12.45;;;1.70;99.90;;;;;;5052203;28;20025;-74
2021/11/09 03:53:23;;;;;;;21.92;11.63;;;1.60;99.90;;;;;;5051093;28;20041;-73
2021/11/09 04:01:00;;;;;;;23.92;11.50;;;1.30;99.90;;;;;;5052085;28;20100;-73
2021/11/09 04:03:54;;;;;;;23.75;11.75;;;1.20;99.90;;;;;;5050751;28;20455;-73
2021/11/09 04:06:30;;;;;;;36.67;13.43;;;1.10;99.90;;;;;;5051394;28;20083;-73
2021/11/09 04:19:57;;;;;;;32.22;12.35;;;0.90;99.90;;;;;;5030862;28;20033;-73
2021/11/09 05:02:53;;;;;;;25.52;10.88;;;0.40;99.90;;;;;;5050867;28;20508;-73
2021/11/09 05:08:27;;;;;;;33.60;12.15;;;0.40;99.90;;;;;;5028665;28;20037;-73
2021/11/09 05:10:55;;;;;;;;;;;0.40;99.90;;;;;;5029380;28;20385;-73
2021/11/09 05:13:21;;;;;;;23.83;11.23;;;0.40;99.90;;;;;;5039459;28;19908;-73
2021/11/09 05:15:46;;;;;;;23.67;10.23;;;0.30;99.90;;;;;;5051140;28;20121;-74
2021/11/09 05:18:12;;;;;;;21.30;10.27;;;0.20;99.90;;;;;;5050410;28;20036;-72
2021/11/09 05:20:37;;;;;;;22.35;10.50;;;0.20;99.90;;;;;;5050900;28;20033;-72
2021/11/09 05:23:03;;;;;;;26.90;10.52;;;0.10;99.90;;;;;;5050250;28;20024;-74
2021/11/09 05:25:29;;;;;;;29.73;10.93;;;0.00;99.90;;;;;;5051206;28;20032;-75
2021/11/09 05:27:55;;;;;;;25.02;10.90;;;0.00;99.90;;;;;;5051120;28;20040;-72
2021/11/09 05:30:22;;;;;;;25.13;11.32;;;-0.10;99.90;;;;;;5049769;28;20021;-72
2021/11/09 05:32:50;;;;;;;29.65;11.68;;;-0.10;99.90;;;;;;5051001;28;20029;-72
2021/11/09 05:35:15;;;;;;;23.65;10.38;;;-0.10;99.90;;;;;;5051287;28;20078;-75
2021/11/09 05:37:45;;;;;;;23.17;11.60;;;-0.10;99.90;;;;;;5054715;28;20098;-72
2021/11/09 05:40:12;;;;;;;22.25;10.40;;;-0.10;99.90;;;;;;5053922;28;20033;-72
2021/11/09 05:42:38;;;;;;;26.25;10.35;;;-0.10;99.90;;;;;;5054414;28;20044;-72
2021/11/09 05:45:05;;;;;;;21.63;10.32;;;-0.10;99.90;;;;;;5053509;28;20049;-72
2021/11/09 05:47:30;;;;;;;22.52;10.30;;;-0.20;99.90;;;;;;5054461;28;20051;-72
2021/11/09 05:50:04;;;;;;;28.75;11.02;;;-0.40;99.90;;;;;;5053868;28;20486;-72
2021/11/09 05:52:30;;;;;;;25.25;10.63;;;-0.20;99.90;;;;;;5054047;28;20486;-73
2021/11/09 05:54:56;;;;;;;26.58;11.85;;;-0.20;99.90;;;;;;5054076;28;20056;-73
2021/11/09 05:57:21;;;;;;;20.15;10.43;;;-0.20;99.90;;;;;;5053753;28;20039;-73
2021/11/09 05:59:47;;;;;;;20.73;10.60;;;-0.20;99.90;;;;;;5054219;28;20028;-73
2021/11/09 06:02:13;;;;;;;23.27;11.00;;;-0.30;99.90;;;;;;5052911;28;20033;-73
2021/11/09 06:04:39;;;;;;;22.00;10.70;;;-0.30;99.90;;;;;;5054115;28;20116;-73
2021/11/09 06:07:07;;;;;;;24.48;10.77;;;-0.30;99.90;;;;;;5053364;28;20045;-72
2021/11/09 06:09:33;;;;;;;27.20;10.80;;;-0.30;99.90;;;;;;5051127;28;20033;-72
2021/11/09 06:12:00;;;;;;;24.65;11.32;;;-0.40;99.90;;;;;;5053362;28;20021;-73
2021/11/09 06:14:27;;;;;;;22.33;10.73;;;-0.40;99.90;;;;;;5053514;28;20564;-73
2021/11/09 06:16:53;;;;;;;27.90;11.73;;;-0.40;99.90;;;;;;5050671;28;20037;-72
2021/11/09 06:19:19;;;;;;;25.48;12.13;;;-0.40;99.90;;;;;;5051717;28;20021;-73
2021/11/09 06:21:44;;;;;;;29.17;12.18;;;-0.40;99.90;;;;;;5050970;28;20079;-73
2021/11/09 06:24:10;;;;;;;22.85;11.35;;;-0.40;99.90;;;;;;5049265;28;20049;-73
2021/11/09 06:26:36;;;;;;;30.92;12.88;;;-0.50;99.90;;;;;;5050643;28;20037;-73
2021/11/09 06:29:03;;;;;;;31.70;12.10;;;-0.40;99.90;;;;;;5041840;28;20064;-73
2021/11/09 06:31:30;;;;;;;28.75;12.23;;;-0.50;99.90;;;;;;5034047;28;20029;-73
2021/11/09 06:33:57;;;;;;;32.97;12.48;;;-0.50;99.90;;;;;;5033872;28;20025;-73
2021/11/09 06:36:22;;;;;;;29.67;12.63;;;-0.50;99.90;;;;;;5038566;28;20045;-69
2021/11/09 06:38:48;;;;;;;27.30;12.55;;;-0.50;99.90;;;;;;5034635;28;20033;-69
2021/11/09 06:41:14;;;;;;;27.92;13.18;;;-0.50;99.90;;;;;;5034567;28;20033;-69
2021/11/09 06:43:40;;;;;;;35.78;13.80;;;-0.50;99.90;;;;;;5033362;28;20569;-69
2021/11/09 06:46:06;;;;;;;27.95;12.63;;;-0.50;99.90;;;;;;5032455;28;20057;-70
2021/11/09 06:48:31;;;;;;;22.60;10.65;;;-0.40;99.90;;;;;;5035270;28;20294;-69
2021/11/09 06:50:57;;;;;;;30.88;11.93;;;-0.40;99.90;;;;;;5033783;28;20029;-69
2021/11/09 06:53:27;;;;;;;25.77;11.73;;;-0.30;99.90;;;;;;5033772;28;20022;-71
2021/11/09 06:55:53;;;;;;;27.65;12.52;;;-0.30;99.90;;;;;;5034055;28;20124;-69
2021/11/09 06:58:19;;;;;;;26.65;13.32;;;-0.30;99.90;;;;;;5038474;28;20043;-69
2021/11/09 07:00:45;;;;;;;29.83;12.80;;;-0.20;99.90;;;;;;5053533;28;20104;-69
2021/11/09 07:03:10;;;;;;;26.27;12.68;;;-0.20;99.90;;;;;;5051315;28;20025;-69
2021/11/09 07:05:36;;;;;;;25.17;11.55;;;-0.10;99.90;;;;;;5053285;28;20025;-69
2021/11/09 07:08:02;;;;;;;23.95;11.20;;;0.00;99.90;;;;;;5052686;28;20389;-69
2021/11/09 07:10:28;;;;;;;19.35;10.38;;;0.00;99.90;;;;;;5053254;28;20430;-69
2021/11/09 07:12:53;;;;;;;30.48;12.18;;;0.00;99.90;;;;;;5053385;28;20041;-70
2021/11/09 07:15:20;;;;;;;22.20;11.93;;;0.00;99.90;;;;;;5053081;28;20025;-77
2021/11/09 07:17:46;;;;;;;25.75;11.85;;;0.00;99.90;;;;;;5052871;28;20052;-76
2021/11/09 07:20:15;;;;;;;30.50;12.25;;;0.10;99.90;;;;;;5052741;28;20466;-77
2021/11/09 07:22:41;;;;;;;31.35;13.98;;;0.20;99.90;;;;;;5053090;28;20025;-77
2021/11/09 07:25:10;;;;;;;30.40;14.25;;;0.20;99.90;;;;;;5052357;28;20028;-76
2021/11/09 07:27:37;;;;;;;31.75;13.52;;;0.30;99.90;;;;;;5052393;28;20446;-67
2021/11/09 07:30:05;;;;;;;35.78;13.98;;;0.40;99.90;;;;;;5052650;28;20398;-65
2021/11/09 07:32:31;;;;;;;35.33;14.15;;;0.40;99.90;;;;;;5052372;28;20040;-65
2021/11/09 07:34:57;;;;;;;31.58;15.23;;;0.40;99.90;;;;;;5051700;28;20033;-64
2021/11/09 07:37:24;;;;;;;28.23;15.27;;;0.40;99.90;;;;;;5051813;28;20478;-65
2021/11/09 07:39:50;;;;;;;33.22;16.40;;;0.40;99.90;;;;;;5052963;28;20029;-65
2021/11/09 07:42:16;;;;;;;43.00;19.17;;;0.50;99.90;;;;;;5050895;28;20040;-64
2021/11/09 07:44:42;;;;;;;32.13;17.58;;;0.50;99.90;;;;;;5051625;28;20060;-65
2021/11/09 07:47:08;;;;;;;53.22;23.25;;;0.60;99.90;;;;;;5051162;28;20037;-65
2021/11/09 07:49:36;;;;;;;55.05;20.73;;;0.70;99.90;;;;;;5052259;28;20097;-65
2021/11/09 07:52:04;;;;;;;36.53;20.08;;;0.80;99.90;;;;;;5051234;28;20089;-65
2021/11/09 07:54:34;;;;;;;42.42;18.85;;;0.90;99.90;;;;;;5052376;28;20021;-65
2021/11/09 07:57:14;;;;;;;38.92;18.60;;;1.00;99.90;;;;;;5051910;28;20033;-65
2021/11/09 08:02:16;;;;;;;50.20;21.70;;;1.10;99.90;;;;;;5051394;28;20024;-65
2021/11/09 08:07:15;;;;;;;35.33;19.40;;;1.20;99.90;;;;;;5051136;28;20052;-65
2021/11/09 08:09:41;;;;;;;31.77;17.30;;;1.30;99.90;;;;;;5051908;28;20056;-65
2021/11/09 08:12:07;;;;;;;34.05;18.15;;;1.40;99.90;;;;;;5051048;28;20520;-65
2021/11/09 08:14:34;;;;;;;36.70;20.05;;;1.50;99.90;;;;;;5051807;28;20032;-65
2021/11/09 08:17:00;;;;;;;42.58;20.67;;;1.50;99.90;;;;;;5052021;28;20519;-65
2021/11/09 08:19:26;;;;;;;37.58;18.75;;;1.60;99.90;;;;;;5050762;28;20112;-64
2021/11/09 08:21:54;;;;;;;34.40;18.10;;;1.70;99.90;;;;;;5051668;28;20029;-64
2021/11/09 08:24:21;;;;;;;36.95;19.50;;;1.80;99.90;;;;;;5050947;28;20102;-65
2021/11/09 08:26:48;;;;;;;33.67;19.70;;;1.80;99.90;;;;;;5051282;28;20040;-66
2021/11/09 08:29:16;;;;;;;32.17;17.60;;;1.90;99.90;;;;;;5051148;28;20489;-65
2021/11/09 08:31:46;;;;;;;36.40;19.00;;;2.00;99.90;;;;;;5051680;28;20021;-65
2021/11/09 08:34:15;;;;;;;40.47;17.98;;;2.10;99.90;;;;;;5047358;28;20086;-65
2021/11/09 08:36:44;;;;;;;33.03;17.40;;;2.20;99.90;;;;;;5051275;28;20489;-65
2021/11/09 08:39:17;;;;;;;30.83;16.20;;;2.40;99.90;;;;;;5049466;28;20086;-65
2021/11/09 08:44:13;;;;;;;30.27;16.27;;;2.60;99.90;;;;;;5051799;28;20446;-65
2021/11/09 08:46:49;;;;;;;26.10;14.65;;;2.70;99.90;;;;;;5051737;28;20370;-66
2021/11/09 08:49:18;;;;;;;22.85;13.75;;;2.90;99.90;;;;;;5050499;28;20112;-65
2021/11/09 08:51:45;;;;;;;22.70;13.13;;;3.00;99.90;;;;;;5052036;28;20024;-65
2021/11/09 08:54:50;;;;;;;25.90;13.75;;;3.10;99.90;;;;;;5051404;28;20386;-66
2021/11/09 09:05:10;;;;;;;28.23;13.43;;;3.40;99.90;;;;;;5050027;28;20108;-65
2021/11/09 09:07:37;;;;;;;27.60;14.07;;;3.50;99.90;;;;;;5050862;28;20064;-66
2021/11/09 09:10:05;;;;;;;25.45;12.63;;;3.60;99.90;;;;;;5052068;28;20108;-66
2021/11/09 09:12:32;;;;;;;22.95;12.20;;;3.70;99.90;;;;;;5055528;28;20029;-66
2021/11/09 09:14:58;;;;;;;24.95;13.55;;;3.80;99.90;;;;;;5055217;28;20025;-66
2021/11/09 09:17:25;;;;;;;21.55;11.32;;;3.90;99.90;;;;;;5054663;28;20039;-66
2021/11/09 09:20:08;;;;;;;22.50;11.68;;;4.00;99.90;;;;;;5054866;28;20040;-66
2021/11/09 09:22:40;;;;;;;18.30;11.00;;;4.20;99.90;;;;;;5054965;28;20558;-65
2021/11/09 09:25:19;;;;;;;23.75;11.48;;;4.40;99.90;;;;;;5054083;28;20485;-66
2021/11/09 09:54:45;;;;;;;17.15;8.77;;;5.70;99.90;;;;;;5054649;28;20025;-66
2021/11/09 09:57:12;;;;;;;20.08;9.88;;;5.80;99.90;;;;;;5053685;28;20482;-66
2021/11/09 09:59:40;;;;;;;18.88;9.40;;;5.90;99.90;;;;;;5054103;28;20025;-66
2021/11/09 10:02:27;;;;;;;15.20;8.63;;;6.00;99.90;;;;;;5052856;28;20025;-67
2021/11/09 10:05:02;;;;;;;14.98;8.25;;;6.10;99.90;;;;;;5054104;28;20033;-66
2021/11/09 10:07:29;;;;;;;12.15;4.90;;;6.10;99.90;;;;;;5054041;28;20097;-66
2021/11/09 10:09:56;;;;;;;11.93;3.60;;;6.30;99.90;;;;;;5054320;28;20025;-66
2021/11/09 10:12:28;;;;;;;11.35;3.88;;;6.60;99.90;;;;;;5053552;28;20041;-66
2021/11/09 10:14:56;;;;;;;11.50;3.53;;;6.80;99.90;;;;;;5053447;28;20060;-66
2021/11/09 10:17:25;;;;;;;10.65;3.70;;;7.00;99.90;;;;;;5053169;28;20039;-66
2021/11/09 10:19:52;;;;;;;13.15;3.55;;;7.20;99.90;;;;;;5054150;28;20093;-66
2021/11/09 10:22:23;;;;;;;15.23;3.72;;;7.30;99.90;;;;;;5052833;28;20025;-65
2021/11/09 10:24:58;;;;;;;7.10;3.55;;;7.50;99.90;;;;;;5053909;28;20044;-65
2021/11/09 10:27:24;;;;;;;12.13;3.63;;;7.60;99.90;;;;;;5051982;28;20036;-65
2021/11/09 10:29:54;;;;;;;8.82;3.50;;;7.70;99.90;;;;;;5053676;28;20488;-65
2021/11/09 10:32:25;;;;;;;8.18;3.95;;;7.80;99.90;;;;;;5053165;28;20462;-65
2021/11/09 10:34:52;;;;;;;11.52;4.00;;;7.90;99.90;;;;;;5053651;28;20359;-67
2021/11/09 10:37:30;;;;;;;9.73;3.80;;;7.90;99.90;;;;;;5052271;28;20081;-65
2021/11/09 10:40:06;;;;;;;10.23;3.72;;;7.80;99.90;;;;;;5033811;28;20021;-65
2021/11/09 10:42:37;;;;;;;12.52;3.85;;;7.80;99.90;;;;;;5033300;28;20037;-66
2021/11/09 10:45:10;;;;;;;11.30;3.55;;;7.90;99.90;;;;;;5038970;28;20410;-66
2021/11/09 10:47:44;;;;;;;7.35;3.13;;;8.10;99.90;;;;;;5053551;28;20036;-65
2021/11/09 10:50:27;;;;;;;10.18;3.60;;;8.20;99.90;;;;;;5051946;28;20036;-66
2021/11/09 10:53:17;;;;;;;8.57;3.70;;;8.20;99.90;;;;;;5053641;28;20090;-66
2021/11/09 10:56:02;;;;;;;8.25;2.88;;;8.20;99.90;;;;;;5053134;28;20041;-65
2021/11/09 11:06:17;;;;;;;7.75;3.20;;;8.60;99.30;;;;;;5051872;28;20044;-65
2021/11/09 11:08:44;;;;;;;10.05;3.60;;;8.70;99.50;;;;;;5052983;28;20044;-65
2021/11/09 11:11:26;;;;;;;6.20;2.40;;;8.80;98.30;;;;;;5052200;28;20534;-65
2021/11/09 11:13:54;;;;;;;12.00;3.60;;;8.90;98.60;;;;;;5053245;28;20130;-65
2021/11/09 11:16:21;;;;;;;10.00;2.78;;;8.90;98.90;;;;;;5051582;28;20091;-65
2021/11/09 11:18:54;;;;;;;10.27;3.55;;;9.00;97.70;;;;;;5052713;28;20025;-65
2021/11/09 11:21:24;;;;;;;7.30;3.22;;;9.20;97.20;;;;;;5051679;28;20037;-65
2021/11/09 11:23:50;;;;;;;13.60;3.67;;;9.20;97.20;;;;;;5052338;28;20035;-65
2021/11/09 11:26:18;;;;;;;7.13;3.30;;;9.30;96.80;;;;;;5051413;28;20490;-65
2021/11/09 11:28:46;;;;;;;11.40;4.13;;;9.30;97.40;;;;;;5051332;28;20029;-65
2021/11/09 11:31:13;;;;;;;12.32;3.92;;;9.30;96.70;;;;;;5051618;28;20032;-66
2021/11/09 11:33:40;;;;;;;11.15;4.00;;;9.40;96.30;;;;;;5050845;28;20103;-65
2021/11/09 11:36:06;;;;;;;10.52;4.57;;;9.40;96.70;;;;;;5051612;28;20115;-65
2021/11/09 11:38:34;;;;;;;11.68;3.67;;;9.30;96.50;;;;;;5051454;28;20051;-65
2021/11/09 11:41:03;;;;;;;8.90;3.60;;;9.40;96.50;;;;;;5049691;28;20040;-65
2021/11/09 11:43:46;;;;;;;9.10;3.65;;;9.50;95.40;;;;;;5053339;28;20041;-65
2021/11/09 11:46:36;;;;;;;8.38;3.65;;;9.60;95.60;;;;;;5046330;28;20130;-65
2021/11/09 11:49:01;;;;;;;7.10;3.03;;;9.50;95.60;;;;;;5052763;28;20036;-65
2021/11/09 11:51:29;;;;;;;8.65;4.07;;;9.50;95.70;;;;;;5052100;28;20571;-65
2021/11/09 11:53:55;;;;;;;14.48;4.57;;;9.70;95.10;;;;;;5052868;28;20056;-65
2021/11/09 11:56:42;;;;;;;10.18;3.50;;;9.70;95.40;;;;;;5051542;28;20445;-65
2021/11/09 11:59:37;;;;;;;11.10;3.40;;;;;;;;;;5052159;28;20473;-65
2021/11/09 12:02:06;;;;;;;11.18;3.85;;;9.90;99.90;;;;;;5048868;28;20109;-66
2021/11/09 12:04:41;;;;;;;7.50;2.90;;;10.00;99.90;;;;;;5052863;28;20390;-66
2021/11/09 12:07:09;;;;;;;7.82;2.58;;;10.00;98.80;;;;;;5051697;28;20385;-66
2021/11/09 12:09:37;;;;;;;6.63;2.95;;;10.00;99.20;;;;;;5051393;28;20385;-66
2021/11/09 12:12:18;;;;;;;8.52;2.42;;;9.90;98.80;;;;;;5052097;28;20039;-66
2021/11/09 12:14:46;;;;;;;8.82;2.75;;;9.90;98.20;;;;;;5052143;28;20373;-66
2021/11/09 12:17:13;;;;;;;5.75;2.35;;;10.00;97.90;;;;;;5051530;28;20041;-66
2021/11/09 12:19:47;;;;;;;9.95;2.53;;;10.00;97.50;;;;;;5052307;28;20033;-65
2021/11/09 12:22:35;;;;;;;7.00;2.40;;;10.10;97.40;;;;;;5050971;28;20031;-66
2021/11/09 12:25:01;;;;;;;7.10;2.65;;;10.20;96.80;;;;;;5051638;28;20094;-66
2021/11/09 12:27:47;;;;;;;8.50;2.65;;;10.30;96.90;;;;;;5051181;28;20425;-66
2021/11/09 12:30:31;;;;;;;6.65;2.45;;;10.30;96.80;;;;;;5050904;28;20031;-66
2021/11/09 12:33:21;;;;;;;7.22;2.70;;;10.40;99.90;;;;;;5051733;28;20044;-65
2021/11/09 12:36:11;;;;;;;8.75;3.13;;;;;;;;;;5051652;28;20067;-66
2021/11/09 12:38:50;;;;;;;9.45;2.60;;;10.40;90.10;;;;;;5051263;28;20025;-66
2021/11/09 12:41:18;;;;;;;7.85;2.35;;;10.60;89.60;;;;;;5050450;28;20485;-66
2021/11/09 12:43:53;;;;;;;8.63;2.20;;;10.80;86.60;;;;;;5051441;28;20033;-65
2021/11/09 12:46:26;;;;;;;9.02;2.60;;;;;;;;;;5049987;28;20080;-66
2021/11/09 12:49:00;;;;;;;7.57;2.28;;;11.40;82.20;;;;;;5051612;28;20029;-66
2021/11/09 12:51:32;;;;;;;6.68;2.50;;;11.90;80.90;;;;;;5050469;28;20108;-66
2021/11/09 12:54:06;;;;;;;16.50;2.53;;;12.30;77.60;;;;;;5051324;28;20033;-66
2021/11/09 12:56:39;;;;;;;7.07;2.67;;;12.60;76.00;;;;;;5050987;28;20037;-66
2021/11/09 12:59:27;;;;;;;6.00;2.05;;;12.90;74.90;;;;;;5046874;28;20032;-66
2021/11/09 13:02:18;;;;;;;8.43;1.90;;;13.00;75.20;;;;;;5051585;28;20025;-66
2021/11/09 13:07:52;;;;;;;10.70;3.03;;;12.80;73.10;;;;;;5051235;28;19967;-66
2021/11/09 13:10:13;;;;;;;4.55;2.40;;;12.50;72.50;;;;;;5047834;28;20394;-66
2021/11/09 13:12:41;;;;;;;10.50;3.88;;;12.10;73.20;;;;;;5050652;28;20029;-66
2021/11/09 13:15:11;;;;;;;5.72;3.05;;;11.80;74.70;;;;;;5036715;28;20037;-66
2021/11/09 13:17:41;;;;;;;;;;;11.60;74.80;;;;;;5050533;28;20082;-66
2021/11/09 13:20:35;;;;;;;9.75;2.63;;;11.50;75.20;;;;;;5051307;28;19916;-66
2021/11/09 13:23:04;;;;;;;4.75;2.50;;;11.30;76.40;;;;;;5051167;28;20025;-66
2021/11/09 13:25:36;;;;;;;5.40;2.20;;;11.10;77.50;;;;;;5049441;28;20020;-66
2021/11/09 13:28:06;;;;;;;9.02;2.53;;;11.10;76.30;;;;;;5050664;28;20516;-65
2021/11/09 13:30:33;;;;;;;8.43;2.50;;;11.00;76.50;;;;;;5049861;28;20512;-66
2021/11/09 13:32:59;;;;;;;7.65;2.55;;;10.90;77.90;;;;;;5051089;28;20025;-66
2021/11/09 13:35:33;;;;;;;4.95;2.40;;;10.80;77.30;;;;;;5049901;28;20116;-66
2021/11/09 13:38:06;;;;;;;8.05;2.50;;;10.70;78.20;;;;;;5049192;28;20021;-66
2021/11/09 13:40:32;;;;;;;8.77;2.80;;;10.70;78.60;;;;;;5042137;28;20060;-66
2021/11/09 13:43:03;;;;;;;6.43;2.42;;;10.60;78.90;;;;;;5051315;28;20471;-66
2021/11/09 13:45:29;;;;;;;8.48;2.63;;;10.60;77.80;;;;;;5031826;28;20054;-65
2021/11/09 13:47:55;;;;;;;5.57;2.30;;;10.60;78.40;;;;;;5043153;28;20029;-65
2021/11/09 13:50:21;;;;;;;9.18;2.63;;;10.50;80.10;;;;;;5049753;28;20103;-65
2021/11/09 13:52:49;;;;;;;8.02;2.30;;;10.50;79.30;;;;;;5048266;28;20029;-66
2021/11/09 13:55:20;;;;;;;5.78;2.30;;;10.40;79.40;;;;;;5050036;28;20040;-66
2021/11/09 13:57:47;;;;;;;6.78;2.53;;;10.40;79.20;;;;;;5053731;28;20029;-66
2021/11/09 14:00:28;;;;;;;8.48;2.33;;;10.30;79.80;;;;;;5053823;28;20033;-66
2021/11/09 14:03:10;;;;;;;13.25;2.72;;;10.20;79.80;;;;;;5054279;28;20130;-66
2021/11/09 14:08:48;;;;;;;7.72;2.20;;;10.10;81.20;;;;;;5053323;28;20086;-66
2021/11/09 14:16:38;;;;;;;6.20;2.33;;;9.90;81.90;;;;;;5053235;28;20455;-66
2021/11/09 14:19:14;;;;;;;5.85;1.92;;;9.80;82.40;;;;;;5053610;28;20450;-65
2021/11/09 14:21:45;;;;;;;6.68;2.17;;;9.80;82.70;;;;;;5053022;28;20035;-66
2021/11/09 14:24:15;;;;;;;5.07;2.33;;;9.70;83.10;;;;;;5053913;28;20039;-65
2021/11/09 14:26:46;;;;;;;8.85;2.58;;;9.60;83.50;;;;;;5052815;28;20055;-65
2021/11/09 14:29:24;;;;;;;5.35;2.25;;;9.60;84.30;;;;;;5054244;28;20032;-66
2021/11/09 14:32:01;;;;;;;7.68;2.42;;;9.50;85.10;;;;;;5053698;28;20025;-65
2021/11/09 14:34:28;;;;;;;2.60;1.48;;;9.40;85.80;;;;;;5053338;28;20036;-66
2021/11/09 14:37:20;;;;;;;8.20;2.72;;;9.40;85.60;;;;;;5054151;28;20025;-65
2021/11/09 14:40:03;;;;;;;6.80;2.40;;;9.30;85.90;;;;;;5054081;28;20032;-66
2021/11/09 14:42:46;;;;;;;7.28;2.10;;;9.30;87.50;;;;;;5052531;28;20085;-66
2021/11/09 14:45:29;;;;;;;5.07;2.10;;;9.30;88.70;;;;;;5053065;28;20447;-65
2021/11/09 14:48:20;;;;;;;7.82;2.38;;;9.20;89.50;;;;;;5038448;28;20036;-65
2021/11/09 14:56:19;;;;;;;6.15;1.83;;;9.00;90.50;;;;;;5053687;28;20139;-66
2021/11/09 14:58:59;;;;;;;7.60;2.10;;;8.90;91.00;;;;;;5052814;28;20021;-65
2021/11/09 15:01:45;;;;;;;7.20;2.17;;;8.90;91.40;;;;;;5052486;28;20090;-65
2021/11/09 15:04:17;;;;;;;4.22;1.85;;;8.80;91.20;;;;;;5051324;28;20048;-68
2021/11/09 15:12:23;;;;;;;8.40;2.22;;;8.70;91.60;;;;;;5034946;28;20048;-71
2021/11/09 15:26:02;;;;;;;5.25;2.40;;;8.20;93.80;;;;;;5052746;28;20032;-69
2021/11/09 15:28:30;;;;;;;6.32;2.00;;;8.20;93.90;;;;;;5052355;28;20037;-70
2021/11/09 15:31:06;;;;;;;6.50;2.00;;;8.10;94.30;;;;;;5053201;28;20025;-71
2021/11/09 15:33:35;;;;;;;10.07;2.30;;;8.00;94.60;;;;;;5052322;28;20021;-70
2021/11/09 15:38:50;;;;;;;5.80;2.30;;;7.80;95.60;;;;;;5052996;28;20029;-72
2021/11/09 15:41:17;;;;;;;4.03;1.95;;;7.70;96.00;;;;;;5052620;28;20025;-70
2021/11/09 15:43:43;;;;;;;8.27;2.20;;;7.60;96.50;;;;;;5052437;28;20037;-67
2021/11/09 15:46:10;;;;;;;5.25;2.20;;;7.50;96.90;;;;;;5051707;28;20049;-71
2021/11/09 15:48:36;;;;;;;6.63;2.92;;;7.40;97.50;;;;;;5052199;28;20087;-71
2021/11/09 15:51:03;;;;;;;8.55;2.97;;;7.30;98.20;;;;;;5052449;28;20127;-69